sensor_id;sensor_type;location;lat;lon;timestamp;temperature;humidity
8953;DHT22;4511;50.890;8.054;2023-03-01T00:01:27;1.20;95.90
8953;DHT22;4511;50.890;8.054;2023-03-01T00:03:54;1.10;95.90
8953;DHT22;4511;50.890;8.054;2023-03-01T00:06:23;1.10;96.40
8953;DHT22;4511;50.890;8.054;2023-03-01T00:08:50;1.00;96.80
8953;DHT22;4511;50.890;8.054;2023-03-01T00:11:19;1.00;96.90
8953;DHT22;4511;50.890;8.054;2023-03-01T00:13:47;1.00;97.00
8953;DHT22;4511;50.890;8.054;2023-03-01T00:16:16;1.00;97.30
8953;DHT22;4511;50.890;8.054;2023-03-01T00:18:43;0.90;97.20
8953;DHT22;4511;50.890;8.054;2023-03-01T00:21:10;0.80;97.40
8953;DHT22;4511;50.890;8.054;2023-03-01T00:23:38;0.90;97.60
8953;DHT22;4511;50.890;8.054;2023-03-01T00:26:07;0.90;97.60
8953;DHT22;4511;50.890;8.054;2023-03-01T00:28:34;0.90;97.40
8953;DHT22;4511;50.890;8.054;2023-03-01T00:31:03;0.90;97.70
8953;DHT22;4511;50.890;8.054;2023-03-01T00:33:30;0.90;97.30
8953;DHT22;4511;50.890;8.054;2023-03-01T00:35:57;0.90;97.30
8953;DHT22;4511;50.890;8.054;2023-03-01T00:38:24;1.00;97.60
8953;DHT22;4511;50.890;8.054;2023-03-01T00:40:52;1.00;97.50
8953;DHT22;4511;50.890;8.054;2023-03-01T00:43:19;0.90;97.60
8953;DHT22;4511;50.890;8.054;2023-03-01T00:45:46;0.90;97.80
8953;DHT22;4511;50.890;8.054;2023-03-01T00:48:13;0.90;97.80
8953;DHT22;4511;50.890;8.054;2023-03-01T00:50:40;0.90;98.00
8953;DHT22;4511;50.890;8.054;2023-03-01T00:53:06;0.90;97.90
8953;DHT22;4511;50.890;8.054;2023-03-01T00:55:33;0.80;98.00
8953;DHT22;4511;50.890;8.054;2023-03-01T00:58:01;0.80;98.10
8953;DHT22;4511;50.890;8.054;2023-03-01T01:00:28;0.70;98.30
8953;DHT22;4511;50.890;8.054;2023-03-01T01:02:55;0.80;98.50
8953;DHT22;4511;50.890;8.054;2023-03-01T01:05:21;0.80;98.60
8953;DHT22;4511;50.890;8.054;2023-03-01T01:07:48;0.80;98.40
8953;DHT22;4511;50.890;8.054;2023-03-01T01:10:15;0.70;98.60
8953;DHT22;4511;50.890;8.054;2023-03-01T01:12:47;0.70;98.90
8953;DHT22;4511;50.890;8.054;2023-03-01T01:15:15;0.70;99.20
8953;DHT22;4511;50.890;8.054;2023-03-01T01:17:42;0.70;99.10
8953;DHT22;4511;50.890;8.054;2023-03-01T01:20:10;0.70;99.00
8953;DHT22;4511;50.890;8.054;2023-03-01T01:22:37;0.70;99.00
8953;DHT22;4511;50.890;8.054;2023-03-01T01:25:04;0.70;99.50
8953;DHT22;4511;50.890;8.054;2023-03-01T01:27:31;0.70;99.30
8953;DHT22;4511;50.890;8.054;2023-03-01T01:29:57;0.70;99.40
8953;DHT22;4511;50.890;8.054;2023-03-01T01:32:26;0.60;99.20
8953;DHT22;4511;50.890;8.054;2023-03-01T01:34:52;0.60;99.70
8953;DHT22;4511;50.890;8.054;2023-03-01T01:37:20;0.70;99.70
8953;DHT22;4511;50.890;8.054;2023-03-01T01:39:47;0.70;99.30
8953;DHT22;4511;50.890;8.054;2023-03-01T01:42:15;0.70;99.50
8953;DHT22;4511;50.890;8.054;2023-03-01T01:44:44;0.70;99.20
8953;DHT22;4511;50.890;8.054;2023-03-01T01:47:14;0.70;99.50
8953;DHT22;4511;50.890;8.054;2023-03-01T01:49:47;0.60;99.70
8953;DHT22;4511;50.890;8.054;2023-03-01T01:52:18;0.70;99.90
8953;DHT22;4511;50.890;8.054;2023-03-01T01:54:49;0.60;99.90
8953;DHT22;4511;50.890;8.054;2023-03-01T01:57:20;0.70;99.80
8953;DHT22;4511;50.890;8.054;2023-03-01T01:59:51;0.70;99.50
8953;DHT22;4511;50.890;8.054;2023-03-01T02:02:19;0.70;99.40
8953;DHT22;4511;50.890;8.054;2023-03-01T02:04:48;0.70;99.30
8953;DHT22;4511;50.890;8.054;2023-03-01T02:07:18;0.60;99.90
8953;DHT22;4511;50.890;8.054;2023-03-01T02:09:47;0.50;99.90
8953;DHT22;4511;50.890;8.054;2023-03-01T02:12:15;0.60;99.90
8953;DHT22;4511;50.890;8.054;2023-03-01T02:14:43;0.60;99.90
8953;DHT22;4511;50.890;8.054;2023-03-01T02:17:10;0.60;99.90
8953;DHT22;4511;50.890;8.054;2023-03-01T02:19:52;0.50;99.90
8953;DHT22;4511;50.890;8.054;2023-03-01T02:22:24;0.50;99.90
8953;DHT22;4511;50.890;8.054;2023-03-01T02:25:05;0.60;99.90
8953;DHT22;4511;50.890;8.054;2023-03-01T02:27:40;0.60;99.90
8953;DHT22;4511;50.890;8.054;2023-03-01T02:30:11;0.60;99.90
8953;DHT22;4511;50.890;8.054;2023-03-01T02:32:39;0.60;99.90
8953;DHT22;4511;50.890;8.054;2023-03-01T02:35:09;0.60;99.90
8953;DHT22;4511;50.890;8.054;2023-03-01T02:37:36;0.60;99.90
8953;DHT22;4511;50.890;8.054;2023-03-01T02:40:06;0.60;99.90
8953;DHT22;4511;50.890;8.054;2023-03-01T02:42:43;0.50;99.90
8953;DHT22;4511;50.890;8.054;2023-03-01T02:45:13;0.50;99.90
8953;DHT22;4511;50.890;8.054;2023-03-01T02:47:40;0.50;99.90
8953;DHT22;4511;50.890;8.054;2023-03-01T02:50:19;0.50;99.90
8953;DHT22;4511;50.890;8.054;2023-03-01T02:52:55;0.40;99.90
8953;DHT22;4511;50.890;8.054;2023-03-01T02:55:22;0.40;99.90
8953;DHT22;4511;50.890;8.054;2023-03-01T02:57:49;0.40;99.90
8953;DHT22;4511;50.890;8.054;2023-03-01T03:00:21;0.40;99.90
8953;DHT22;4511;50.890;8.054;2023-03-01T03:02:52;0.40;99.90
8953;DHT22;4511;50.890;8.054;2023-03-01T03:05:22;0.40;99.90
8953;DHT22;4511;50.890;8.054;2023-03-01T03:07:49;0.50;99.90
8953;DHT22;4511;50.890;8.054;2023-03-01T03:10:19;0.50;99.90
8953;DHT22;4511;50.890;8.054;2023-03-01T03:12:49;0.50;99.90
8953;DHT22;4511;50.890;8.054;2023-03-01T03:15:16;0.60;99.90
8953;DHT22;4511;50.890;8.054;2023-03-01T03:17:44;0.60;99.90
8953;DHT22;4511;50.890;8.054;2023-03-01T03:20:12;0.50;99.90
8953;DHT22;4511;50.890;8.054;2023-03-01T03:22:44;0.50;99.90
8953;DHT22;4511;50.890;8.054;2023-03-01T03:25:12;0.50;99.90
8953;DHT22;4511;50.890;8.054;2023-03-01T03:27:40;0.40;99.90
8953;DHT22;4511;50.890;8.054;2023-03-01T03:30:09;0.40;99.90
8953;DHT22;4511;50.890;8.054;2023-03-01T03:32:38;0.40;99.90
8953;DHT22;4511;50.890;8.054;2023-03-01T03:35:08;0.40;99.90
8953;DHT22;4511;50.890;8.054;2023-03-01T03:37:36;0.50;99.90
8953;DHT22;4511;50.890;8.054;2023-03-01T03:40:20;0.50;99.90
8953;DHT22;4511;50.890;8.054;2023-03-01T03:42:47;0.50;99.90
8953;DHT22;4511;50.890;8.054;2023-03-01T03:45:14;0.50;99.90
8953;DHT22;4511;50.890;8.054;2023-03-01T03:47:41;0.40;99.90
8953;DHT22;4511;50.890;8.054;2023-03-01T03:50:11;0.30;99.90
8953;DHT22;4511;50.890;8.054;2023-03-01T03:52:38;0.20;99.90
8953;DHT22;4511;50.890;8.054;2023-03-01T03:55:06;0.10;99.90
8953;DHT22;4511;50.890;8.054;2023-03-01T03:57:36;0.10;99.90
8953;DHT22;4511;50.890;8.054;2023-03-01T04:00:05;0.20;99.90
8953;DHT22;4511;50.890;8.054;2023-03-01T04:02:38;0.10;99.90
8953;DHT22;4511;50.890;8.054;2023-03-01T04:05:05;0.20;99.90
8953;DHT22;4511;50.890;8.054;2023-03-01T04:07:34;0.10;99.90
8953;DHT22;4511;50.890;8.054;2023-03-01T04:10:02;0.10;99.90
8953;DHT22;4511;50.890;8.054;2023-03-01T04:12:28;0.00;99.90
8953;DHT22;4511;50.890;8.054;2023-03-01T04:14:55;0.00;99.90
8953;DHT22;4511;50.890;8.054;2023-03-01T04:17:23;0.00;99.90
8953;DHT22;4511;50.890;8.054;2023-03-01T04:19:50;0.00;99.90
8953;DHT22;4511;50.890;8.054;2023-03-01T04:22:17;0.00;99.90
8953;DHT22;4511;50.890;8.054;2023-03-01T04:24:45;0.00;99.90
8953;DHT22;4511;50.890;8.054;2023-03-01T04:27:12;-0.10;99.90
8953;DHT22;4511;50.890;8.054;2023-03-01T04:29:39;-0.10;99.90
8953;DHT22;4511;50.890;8.054;2023-03-01T04:32:05;-0.10;99.90
8953;DHT22;4511;50.890;8.054;2023-03-01T04:34:32;-0.20;99.90
8953;DHT22;4511;50.890;8.054;2023-03-01T04:36:59;-0.20;99.90
8953;DHT22;4511;50.890;8.054;2023-03-01T04:39:26;-0.20;99.90
8953;DHT22;4511;50.890;8.054;2023-03-01T04:41:54;-0.10;99.90
8953;DHT22;4511;50.890;8.054;2023-03-01T04:44:20;0.00;99.90
8953;DHT22;4511;50.890;8.054;2023-03-01T04:46:48;-0.10;99.90
8953;DHT22;4511;50.890;8.054;2023-03-01T04:49:16;0.00;99.90
8953;DHT22;4511;50.890;8.054;2023-03-01T04:51:42;0.00;99.90
8953;DHT22;4511;50.890;8.054;2023-03-01T04:54:09;0.00;99.90
8953;DHT22;4511;50.890;8.054;2023-03-01T04:56:36;0.00;99.90
8953;DHT22;4511;50.890;8.054;2023-03-01T04:59:04;0.10;99.90
8953;DHT22;4511;50.890;8.054;2023-03-01T05:01:31;0.00;99.90
8953;DHT22;4511;50.890;8.054;2023-03-01T05:03:58;0.00;99.90
8953;DHT22;4511;50.890;8.054;2023-03-01T05:06:28;0.00;99.90
8953;DHT22;4511;50.890;8.054;2023-03-01T05:08:55;0.00;99.90
8953;DHT22;4511;50.890;8.054;2023-03-01T05:11:22;0.00;99.90
8953;DHT22;4511;50.890;8.054;2023-03-01T05:13:49;0.10;99.90
8953;DHT22;4511;50.890;8.054;2023-03-01T05:16:21;0.00;99.90
8953;DHT22;4511;50.890;8.054;2023-03-01T05:18:48;0.00;99.90
8953;DHT22;4511;50.890;8.054;2023-03-01T05:21:16;0.10;99.90
8953;DHT22;4511;50.890;8.054;2023-03-01T05:23:44;0.00;99.90
8953;DHT22;4511;50.890;8.054;2023-03-01T05:26:10;0.00;99.90
8953;DHT22;4511;50.890;8.054;2023-03-01T05:28:38;-0.10;99.90
8953;DHT22;4511;50.890;8.054;2023-03-01T05:31:06;0.00;99.90
8953;DHT22;4511;50.890;8.054;2023-03-01T05:33:36;0.00;99.90
8953;DHT22;4511;50.890;8.054;2023-03-01T05:36:04;-0.10;99.90
8953;DHT22;4511;50.890;8.054;2023-03-01T05:38:31;-0.10;99.90
8953;DHT22;4511;50.890;8.054;2023-03-01T05:40:58;-0.10;99.90
8953;DHT22;4511;50.890;8.054;2023-03-01T05:43:25;-0.10;99.90
8953;DHT22;4511;50.890;8.054;2023-03-01T05:45:52;0.00;99.90
8953;DHT22;4511;50.890;8.054;2023-03-01T05:48:19;0.00;99.90
8953;DHT22;4511;50.890;8.054;2023-03-01T05:50:47;-0.10;99.90
8953;DHT22;4511;50.890;8.054;2023-03-01T05:53:15;-0.10;99.90
8953;DHT22;4511;50.890;8.054;2023-03-01T05:55:43;-0.20;99.90
8953;DHT22;4511;50.890;8.054;2023-03-01T05:58:13;-0.20;99.90
8953;DHT22;4511;50.890;8.054;2023-03-01T06:00:40;-0.20;99.90
8953;DHT22;4511;50.890;8.054;2023-03-01T06:03:10;-0.10;99.90
8953;DHT22;4511;50.890;8.054;2023-03-01T06:05:37;-0.10;99.90
8953;DHT22;4511;50.890;8.054;2023-03-01T06:08:06;0.40;99.90
8953;DHT22;4511;50.890;8.054;2023-03-01T06:10:33;0.20;99.90
8953;DHT22;4511;50.890;8.054;2023-03-01T06:13:00;0.10;99.90
8953;DHT22;4511;50.890;8.054;2023-03-01T06:15:26;0.10;99.90
8953;DHT22;4511;50.890;8.054;2023-03-01T06:17:55;0.00;99.90
8953;DHT22;4511;50.890;8.054;2023-03-01T06:20:24;-0.10;99.90
8953;DHT22;4511;50.890;8.054;2023-03-01T06:22:51;-0.20;99.90
8953;DHT22;4511;50.890;8.054;2023-03-01T06:25:21;-0.20;99.90
8953;DHT22;4511;50.890;8.054;2023-03-01T06:27:48;-0.20;99.90
8953;DHT22;4511;50.890;8.054;2023-03-01T06:30:17;-0.10;99.90
8953;DHT22;4511;50.890;8.054;2023-03-01T06:32:44;-0.10;99.90
8953;DHT22;4511;50.890;8.054;2023-03-01T06:35:13;-0.10;99.90
8953;DHT22;4511;50.890;8.054;2023-03-01T06:37:40;-0.10;99.90
8953;DHT22;4511;50.890;8.054;2023-03-01T06:40:09;0.00;99.90
8953;DHT22;4511;50.890;8.054;2023-03-01T06:42:40;0.00;99.90
8953;DHT22;4511;50.890;8.054;2023-03-01T06:45:08;0.10;99.90
8953;DHT22;4511;50.890;8.054;2023-03-01T06:47:35;0.00;99.90
8953;DHT22;4511;50.890;8.054;2023-03-01T06:50:03;0.00;99.90
8953;DHT22;4511;50.890;8.054;2023-03-01T06:52:30;-0.10;99.90
8953;DHT22;4511;50.890;8.054;2023-03-01T06:54:57;0.00;99.90
8953;DHT22;4511;50.890;8.054;2023-03-01T06:57:24;0.00;99.90
8953;DHT22;4511;50.890;8.054;2023-03-01T06:59:52;0.00;99.90
8953;DHT22;4511;50.890;8.054;2023-03-01T07:02:19;0.10;99.90
8953;DHT22;4511;50.890;8.054;2023-03-01T07:04:46;0.20;99.90
8953;DHT22;4511;50.890;8.054;2023-03-01T07:07:13;0.20;99.90
8953;DHT22;4511;50.890;8.054;2023-03-01T07:09:39;0.30;99.90
8953;DHT22;4511;50.890;8.054;2023-03-01T07:12:06;0.40;99.90
8953;DHT22;4511;50.890;8.054;2023-03-01T07:14:34;0.40;99.90
8953;DHT22;4511;50.890;8.054;2023-03-01T07:17:02;0.50;99.90
8953;DHT22;4511;50.890;8.054;2023-03-01T07:19:29;0.60;99.90
8953;DHT22;4511;50.890;8.054;2023-03-01T07:21:56;0.70;99.90
8953;DHT22;4511;50.890;8.054;2023-03-01T07:24:23;0.70;99.90
8953;DHT22;4511;50.890;8.054;2023-03-01T07:26:50;0.70;99.90
8953;DHT22;4511;50.890;8.054;2023-03-01T07:29:18;0.80;99.90
8953;DHT22;4511;50.890;8.054;2023-03-01T07:31:45;0.80;99.90
8953;DHT22;4511;50.890;8.054;2023-03-01T07:34:13;0.90;99.90
8953;DHT22;4511;50.890;8.054;2023-03-01T07:36:40;0.90;99.90
8953;DHT22;4511;50.890;8.054;2023-03-01T07:39:09;0.90;99.90
8953;DHT22;4511;50.890;8.054;2023-03-01T07:41:36;1.00;99.90
8953;DHT22;4511;50.890;8.054;2023-03-01T07:44:03;1.10;99.90
8953;DHT22;4511;50.890;8.054;2023-03-01T07:46:30;1.20;99.90
8953;DHT22;4511;50.890;8.054;2023-03-01T07:48:57;1.20;99.90
8953;DHT22;4511;50.890;8.054;2023-03-01T07:51:25;1.40;99.90
8953;DHT22;4511;50.890;8.054;2023-03-01T07:53:52;1.50;99.90
8953;DHT22;4511;50.890;8.054;2023-03-01T07:56:18;1.50;99.90
8953;DHT22;4511;50.890;8.054;2023-03-01T07:58:46;1.60;99.90
8953;DHT22;4511;50.890;8.054;2023-03-01T08:01:15;1.70;99.90
8953;DHT22;4511;50.890;8.054;2023-03-01T08:03:42;1.60;99.90
8953;DHT22;4511;50.890;8.054;2023-03-01T08:06:11;1.80;99.90
8953;DHT22;4511;50.890;8.054;2023-03-01T08:08:39;1.80;99.90
8953;DHT22;4511;50.890;8.054;2023-03-01T08:11:07;1.90;99.90
8953;DHT22;4511;50.890;8.054;2023-03-01T08:13:36;1.90;99.90
8953;DHT22;4511;50.890;8.054;2023-03-01T08:16:04;2.00;99.90
8953;DHT22;4511;50.890;8.054;2023-03-01T08:18:31;2.00;99.90
8953;DHT22;4511;50.890;8.054;2023-03-01T08:21:02;2.10;99.90
8953;DHT22;4511;50.890;8.054;2023-03-01T08:23:28;2.00;99.90
8953;DHT22;4511;50.890;8.054;2023-03-01T08:26:05;2.00;99.90
8953;DHT22;4511;50.890;8.054;2023-03-01T08:28:32;2.00;99.90
8953;DHT22;4511;50.890;8.054;2023-03-01T08:30:59;2.10;99.90
8953;DHT22;4511;50.890;8.054;2023-03-01T08:33:26;2.20;99.90
8953;DHT22;4511;50.890;8.054;2023-03-01T08:36:01;2.10;99.90
8953;DHT22;4511;50.890;8.054;2023-03-01T08:38:28;2.10;99.90
8953;DHT22;4511;50.890;8.054;2023-03-01T08:40:55;2.10;99.90
8953;DHT22;4511;50.890;8.054;2023-03-01T08:43:23;2.20;99.90
8953;DHT22;4511;50.890;8.054;2023-03-01T08:45:50;2.20;99.90
8953;DHT22;4511;50.890;8.054;2023-03-01T08:48:17;2.20;99.90
8953;DHT22;4511;50.890;8.054;2023-03-01T08:50:43;2.30;99.90
8953;DHT22;4511;50.890;8.054;2023-03-01T08:53:10;2.40;99.90
8953;DHT22;4511;50.890;8.054;2023-03-01T08:55:37;2.50;99.90
8953;DHT22;4511;50.890;8.054;2023-03-01T08:58:03;2.50;99.90
8953;DHT22;4511;50.890;8.054;2023-03-01T09:00:32;2.60;99.90
8953;DHT22;4511;50.890;8.054;2023-03-01T09:03:00;2.60;99.40
8953;DHT22;4511;50.890;8.054;2023-03-01T09:05:26;2.70;99.70
8953;DHT22;4511;50.890;8.054;2023-03-01T09:07:53;2.70;98.80
8953;DHT22;4511;50.890;8.054;2023-03-01T09:10:20;2.90;99.20
8953;DHT22;4511;50.890;8.054;2023-03-01T09:12:47;3.00;98.80
8953;DHT22;4511;50.890;8.054;2023-03-01T09:15:14;2.90;98.10
8953;DHT22;4511;50.890;8.054;2023-03-01T09:17:42;2.90;98.00
8953;DHT22;4511;50.890;8.054;2023-03-01T09:20:10;3.00;97.90
8953;DHT22;4511;50.890;8.054;2023-03-01T09:22:37;3.10;97.80
8953;DHT22;4511;50.890;8.054;2023-03-01T09:25:04;3.10;97.50
8953;DHT22;4511;50.890;8.054;2023-03-01T09:27:31;3.30;97.50
8953;DHT22;4511;50.890;8.054;2023-03-01T09:29:59;3.40;97.00
8953;DHT22;4511;50.890;8.054;2023-03-01T09:32:26;3.60;97.10
8953;DHT22;4511;50.890;8.054;2023-03-01T09:34:54;3.70;96.40
8953;DHT22;4511;50.890;8.054;2023-03-01T09:37:30;3.90;96.50
8953;DHT22;4511;50.890;8.054;2023-03-01T09:39:56;4.00;95.70
8953;DHT22;4511;50.890;8.054;2023-03-01T09:42:24;4.10;95.40
8953;DHT22;4511;50.890;8.054;2023-03-01T09:44:53;4.30;94.80
8953;DHT22;4511;50.890;8.054;2023-03-01T09:47:25;4.40;94.70
8953;DHT22;4511;50.890;8.054;2023-03-01T09:50:02;4.60;94.10
8953;DHT22;4511;50.890;8.054;2023-03-01T09:52:39;4.60;93.20
8953;DHT22;4511;50.890;8.054;2023-03-01T09:55:10;4.80;92.90
8953;DHT22;4511;50.890;8.054;2023-03-01T09:57:43;5.00;93.30
8953;DHT22;4511;50.890;8.054;2023-03-01T10:00:25;5.10;92.90
8953;DHT22;4511;50.890;8.054;2023-03-01T10:02:58;5.30;92.60
8953;DHT22;4511;50.890;8.054;2023-03-01T10:05:34;5.40;91.10
8953;DHT22;4511;50.890;8.054;2023-03-01T10:08:25;5.40;90.70
8953;DHT22;4511;50.890;8.054;2023-03-01T10:10:54;5.40;90.50
8953;DHT22;4511;50.890;8.054;2023-03-01T10:13:25;5.70;88.40
8953;DHT22;4511;50.890;8.054;2023-03-01T10:15:57;5.90;88.20
8953;DHT22;4511;50.890;8.054;2023-03-01T10:18:26;6.20;86.70
8953;DHT22;4511;50.890;8.054;2023-03-01T10:20:57;6.20;86.50
8953;DHT22;4511;50.890;8.054;2023-03-01T10:23:26;6.20;83.50
8953;DHT22;4511;50.890;8.054;2023-03-01T10:26:13;6.00;82.80
8953;DHT22;4511;50.890;8.054;2023-03-01T10:28:50;6.00;82.00
8953;DHT22;4511;50.890;8.054;2023-03-01T10:31:23;6.20;83.80
8953;DHT22;4511;50.890;8.054;2023-03-01T10:33:53;6.50;85.20
8953;DHT22;4511;50.890;8.054;2023-03-01T10:36:23;6.70;83.70
8953;DHT22;4511;50.890;8.054;2023-03-01T10:38:52;6.90;82.80
8953;DHT22;4511;50.890;8.054;2023-03-01T10:41:20;6.90;79.50
8953;DHT22;4511;50.890;8.054;2023-03-01T10:43:50;7.10;82.00
8953;DHT22;4511;50.890;8.054;2023-03-01T10:46:24;7.20;81.20
8953;DHT22;4511;50.890;8.054;2023-03-01T10:49:07;7.40;80.40
8953;DHT22;4511;50.890;8.054;2023-03-01T10:51:36;7.40;78.80
8953;DHT22;4511;50.890;8.054;2023-03-01T10:54:06;7.40;78.10
8953;DHT22;4511;50.890;8.054;2023-03-01T10:56:49;7.70;78.80
8953;DHT22;4511;50.890;8.054;2023-03-01T10:59:27;7.70;78.40
8953;DHT22;4511;50.890;8.054;2023-03-01T11:02:15;7.90;78.00
8953;DHT22;4511;50.890;8.054;2023-03-01T11:04:56;8.00;76.20
8953;DHT22;4511;50.890;8.054;2023-03-01T11:07:25;8.10;76.50
8953;DHT22;4511;50.890;8.054;2023-03-01T11:09:52;8.00;74.90
8953;DHT22;4511;50.890;8.054;2023-03-01T11:12:20;8.00;74.00
8953;DHT22;4511;50.890;8.054;2023-03-01T11:14:48;8.10;73.50
8953;DHT22;4511;50.890;8.054;2023-03-01T11:17:26;8.00;73.20
8953;DHT22;4511;50.890;8.054;2023-03-01T11:20:13;8.10;72.70
8953;DHT22;4511;50.890;8.054;2023-03-01T11:22:48;8.40;73.20
8953;DHT22;4511;50.890;8.054;2023-03-01T11:25:17;8.40;72.20
8953;DHT22;4511;50.890;8.054;2023-03-01T11:27:46;8.40;73.10
8953;DHT22;4511;50.890;8.054;2023-03-01T11:30:18;8.50;72.00
8953;DHT22;4511;50.890;8.054;2023-03-01T11:32:53;8.50;73.20
8953;DHT22;4511;50.890;8.054;2023-03-01T11:35:23;8.60;70.00
8953;DHT22;4511;50.890;8.054;2023-03-01T11:38:03;8.90;69.80
8953;DHT22;4511;50.890;8.054;2023-03-01T11:40:37;9.20;67.90
8953;DHT22;4511;50.890;8.054;2023-03-01T11:43:09;9.30;66.70
8953;DHT22;4511;50.890;8.054;2023-03-01T11:45:45;9.20;67.40
8953;DHT22;4511;50.890;8.054;2023-03-01T11:48:27;9.20;66.50
8953;DHT22;4511;50.890;8.054;2023-03-01T11:50:56;9.60;66.40
8953;DHT22;4511;50.890;8.054;2023-03-01T11:53:34;9.50;65.60
8953;DHT22;4511;50.890;8.054;2023-03-01T11:56:09;9.50;65.30
8953;DHT22;4511;50.890;8.054;2023-03-01T11:58:53;9.80;65.50
8953;DHT22;4511;50.890;8.054;2023-03-01T12:01:42;10.00;63.90
8953;DHT22;4511;50.890;8.054;2023-03-01T12:04:36;10.10;63.50
8953;DHT22;4511;50.890;8.054;2023-03-01T12:07:17;9.90;63.10
8953;DHT22;4511;50.890;8.054;2023-03-01T12:10:13;10.00;62.60
8953;DHT22;4511;50.890;8.054;2023-03-01T12:12:51;9.90;63.10
8953;DHT22;4511;50.890;8.054;2023-03-01T12:15:44;10.20;60.00
8953;DHT22;4511;50.890;8.054;2023-03-01T12:18:26;10.30;59.40
8953;DHT22;4511;50.890;8.054;2023-03-01T12:21:05;10.50;58.00
8953;DHT22;4511;50.890;8.054;2023-03-01T12:23:52;10.50;57.80
8953;DHT22;4511;50.890;8.054;2023-03-01T12:26:27;10.30;56.80
8953;DHT22;4511;50.890;8.054;2023-03-01T12:29:08;10.50;58.00
8953;DHT22;4511;50.890;8.054;2023-03-01T12:32:09;11.00;58.60
8953;DHT22;4511;50.890;8.054;2023-03-01T12:35:03;11.10;56.00
8953;DHT22;4511;50.890;8.054;2023-03-01T12:37:42;11.30;54.70
8953;DHT22;4511;50.890;8.054;2023-03-01T12:40:27;11.60;54.70
8953;DHT22;4511;50.890;8.054;2023-03-01T12:43:12;12.00;53.40
8953;DHT22;4511;50.890;8.054;2023-03-01T12:45:50;12.30;53.50
8953;DHT22;4511;50.890;8.054;2023-03-01T12:48:31;12.40;53.70
8953;DHT22;4511;50.890;8.054;2023-03-01T12:51:06;12.70;52.30
8953;DHT22;4511;50.890;8.054;2023-03-01T12:53:39;12.70;49.80
8953;DHT22;4511;50.890;8.054;2023-03-01T12:56:07;12.70;49.10
8953;DHT22;4511;50.890;8.054;2023-03-01T12:58:42;13.10;49.00
8953;DHT22;4511;50.890;8.054;2023-03-01T13:01:21;13.50;47.50
8953;DHT22;4511;50.890;8.054;2023-03-01T13:04:14;13.70;47.20
8953;DHT22;4511;50.890;8.054;2023-03-01T13:06:44;13.50;47.70
8953;DHT22;4511;50.890;8.054;2023-03-01T13:09:22;13.20;47.70
8953;DHT22;4511;50.890;8.054;2023-03-01T13:11:51;12.80;47.90
8953;DHT22;4511;50.890;8.054;2023-03-01T13:14:52;12.80;47.80
8953;DHT22;4511;50.890;8.054;2023-03-01T13:17:41;13.10;47.70
8953;DHT22;4511;50.890;8.054;2023-03-01T13:20:14;13.20;47.10
8953;DHT22;4511;50.890;8.054;2023-03-01T13:22:41;13.30;46.20
8953;DHT22;4511;50.890;8.054;2023-03-01T13:25:14;13.60;45.30
8953;DHT22;4511;50.890;8.054;2023-03-01T13:27:41;14.00;44.60
8953;DHT22;4511;50.890;8.054;2023-03-01T13:30:40;14.40;45.50
8953;DHT22;4511;50.890;8.054;2023-03-01T13:36:08;15.20;45.70
8953;DHT22;4511;50.890;8.054;2023-03-01T13:38:38;15.30;46.10
8953;DHT22;4511;50.890;8.054;2023-03-01T13:41:06;15.10;45.40
8953;DHT22;4511;50.890;8.054;2023-03-01T13:43:35;14.80;45.10
8953;DHT22;4511;50.890;8.054;2023-03-01T13:46:09;14.60;45.70
8953;DHT22;4511;50.890;8.054;2023-03-01T13:48:38;14.30;45.00
8953;DHT22;4511;50.890;8.054;2023-03-01T13:51:08;14.10;45.60
8953;DHT22;4511;50.890;8.054;2023-03-01T13:53:37;14.00;46.60
8953;DHT22;4511;50.890;8.054;2023-03-01T13:56:08;14.00;45.60
8953;DHT22;4511;50.890;8.054;2023-03-01T13:58:46;14.00;46.30
8953;DHT22;4511;50.890;8.054;2023-03-01T14:01:22;14.00;45.90
8953;DHT22;4511;50.890;8.054;2023-03-01T14:03:49;13.70;46.00
8953;DHT22;4511;50.890;8.054;2023-03-01T14:06:19;14.20;46.90
8953;DHT22;4511;50.890;8.054;2023-03-01T14:08:48;14.50;45.80
8953;DHT22;4511;50.890;8.054;2023-03-01T14:14:41;15.10;46.10
8953;DHT22;4511;50.890;8.054;2023-03-01T14:20:07;15.30;45.50
8953;DHT22;4511;50.890;8.054;2023-03-01T14:22:36;15.00;45.30
8953;DHT22;4511;50.890;8.054;2023-03-01T14:25:06;14.80;46.00
8953;DHT22;4511;50.890;8.054;2023-03-01T14:27:37;14.30;45.40
8953;DHT22;4511;50.890;8.054;2023-03-01T14:30:12;14.20;45.60
8953;DHT22;4511;50.890;8.054;2023-03-01T14:32:52;14.40;45.80
8953;DHT22;4511;50.890;8.054;2023-03-01T14:35:21;14.50;45.80
8953;DHT22;4511;50.890;8.054;2023-03-01T14:37:48;14.80;45.70
8953;DHT22;4511;50.890;8.054;2023-03-01T14:40:24;14.80;45.30
8953;DHT22;4511;50.890;8.054;2023-03-01T14:42:51;14.60;45.00
8953;DHT22;4511;50.890;8.054;2023-03-01T14:45:19;14.50;45.80
8953;DHT22;4511;50.890;8.054;2023-03-01T14:47:48;14.80;44.70
8953;DHT22;4511;50.890;8.054;2023-03-01T14:50:21;14.70;44.30
8953;DHT22;4511;50.890;8.054;2023-03-01T14:52:50;15.10;44.70
8953;DHT22;4511;50.890;8.054;2023-03-01T14:55:20;15.30;44.00
8953;DHT22;4511;50.890;8.054;2023-03-01T14:57:49;15.50;43.80
8953;DHT22;4511;50.890;8.054;2023-03-01T15:00:20;15.10;43.60
8953;DHT22;4511;50.890;8.054;2023-03-01T15:02:50;14.70;43.90
8953;DHT22;4511;50.890;8.054;2023-03-01T15:05:22;15.10;43.90
8953;DHT22;4511;50.890;8.054;2023-03-01T15:07:51;14.80;44.00
8953;DHT22;4511;50.890;8.054;2023-03-01T15:10:21;15.60;43.60
8953;DHT22;4511;50.890;8.054;2023-03-01T15:12:48;16.30;43.60
8953;DHT22;4511;50.890;8.054;2023-03-01T15:15:33;16.90;43.20
8953;DHT22;4511;50.890;8.054;2023-03-01T15:18:04;17.20;42.20
8953;DHT22;4511;50.890;8.054;2023-03-01T15:20:33;17.50;41.80
8953;DHT22;4511;50.890;8.054;2023-03-01T15:23:02;17.00;41.30
8953;DHT22;4511;50.890;8.054;2023-03-01T15:25:30;15.10;42.20
8953;DHT22;4511;50.890;8.054;2023-03-01T15:27:59;13.40;43.30
8953;DHT22;4511;50.890;8.054;2023-03-01T15:30:29;12.50;45.10
8953;DHT22;4511;50.890;8.054;2023-03-01T15:33:29;11.60;46.10
8953;DHT22;4511;50.890;8.054;2023-03-01T15:35:57;11.00;47.60
8953;DHT22;4511;50.890;8.054;2023-03-01T15:38:33;10.60;48.80
8953;DHT22;4511;50.890;8.054;2023-03-01T15:41:02;10.30;49.50
8953;DHT22;4511;50.890;8.054;2023-03-01T15:43:41;10.20;49.90
8953;DHT22;4511;50.890;8.054;2023-03-01T15:46:24;10.00;49.80
8953;DHT22;4511;50.890;8.054;2023-03-01T15:48:54;10.00;50.00
8953;DHT22;4511;50.890;8.054;2023-03-01T15:51:28;10.20;50.20
8953;DHT22;4511;50.890;8.054;2023-03-01T15:53:59;10.50;49.70
8953;DHT22;4511;50.890;8.054;2023-03-01T15:56:26;11.80;49.00
8953;DHT22;4511;50.890;8.054;2023-03-01T15:58:52;14.10;47.60
8953;DHT22;4511;50.890;8.054;2023-03-01T16:01:19;15.90;44.50
8953;DHT22;4511;50.890;8.054;2023-03-01T16:03:46;17.50;42.90
8953;DHT22;4511;50.890;8.054;2023-03-01T16:06:14;18.00;40.50
8953;DHT22;4511;50.890;8.054;2023-03-01T16:08:41;18.10;40.50
8953;DHT22;4511;50.890;8.054;2023-03-01T16:11:15;18.60;39.90
8953;DHT22;4511;50.890;8.054;2023-03-01T16:13:42;18.40;39.20
8953;DHT22;4511;50.890;8.054;2023-03-01T16:16:10;18.30;39.10
8953;DHT22;4511;50.890;8.054;2023-03-01T16:18:40;18.20;38.70
8953;DHT22;4511;50.890;8.054;2023-03-01T16:21:12;18.60;39.10
8953;DHT22;4511;50.890;8.054;2023-03-01T16:23:42;18.50;38.90
8953;DHT22;4511;50.890;8.054;2023-03-01T16:26:10;18.80;38.20
8953;DHT22;4511;50.890;8.054;2023-03-01T16:28:38;18.60;37.60
8953;DHT22;4511;50.890;8.054;2023-03-01T16:31:06;18.80;37.70
8953;DHT22;4511;50.890;8.054;2023-03-01T16:33:33;18.60;37.90
8953;DHT22;4511;50.890;8.054;2023-03-01T16:36:00;17.60;38.10
8953;DHT22;4511;50.890;8.054;2023-03-01T16:38:28;16.30;39.00
8953;DHT22;4511;50.890;8.054;2023-03-01T16:40:56;14.40;39.90
8953;DHT22;4511;50.890;8.054;2023-03-01T16:43:23;13.00;42.20